Time;durP1;ratioP1;P1;durP2;ratioP2;P2;SDS_P1;SDS_P2;PMS_P1;PMS_P2;Temp;Humidity;BMP_temperature;BMP_pressure;BME280_temperature;BME280_humidity;BME280_pressure;Samples;Min_cycle;Max_cycle;Signal;HPM_P1;HPM_P2
2021/06/27 00:00:20;;;;;;;6.70;3.90;;;24.20;68.50;;;;;;5075537;28;20031;-41
2021/06/27 00:02:45;;;;;;;6.18;3.67;;;24.20;68.50;;;;;;5075159;28;20021;-41
2021/06/27 00:05:14;;;;;;;6.28;3.97;;;24.30;68.60;;;;;;5075636;28;20052;-41
2021/06/27 00:07:39;;;;;;;9.02;3.20;;;24.30;68.50;;;;;;5074867;28;20037;-41
2021/06/27 00:10:10;;;;;;;4.82;3.50;;;24.30;68.30;;;;;;5075427;28;20036;-41
2021/06/27 00:12:36;;;;;;;7.15;4.32;;;24.30;67.90;;;;;;5075163;28;20036;-41
2021/06/27 00:15:11;;;;;;;7.45;3.55;;;24.30;67.70;;;;;;5075335;28;20037;-40
2021/06/27 00:17:36;;;;;;;9.35;3.42;;;24.30;67.10;;;;;;5074595;28;20028;-41
2021/06/27 00:20:07;;;;;;;5.07;3.05;;;24.30;67.10;;;;;;5075392;28;20112;-41
2021/06/27 00:22:33;;;;;;;5.05;3.00;;;24.30;67.00;;;;;;5074723;28;20036;-41
2021/06/27 00:24:58;;;;;;;3.83;3.13;;;24.30;67.00;;;;;;5075328;28;20029;-41
2021/06/27 00:27:24;;;;;;;3.60;2.90;;;24.30;67.00;;;;;;5074495;28;20063;-41
2021/06/27 00:29:49;;;;;;;4.20;2.92;;;24.40;66.40;;;;;;5075220;28;20036;-41
2021/06/27 00:32:15;;;;;;;3.90;3.15;;;24.40;66.10;;;;;;5075039;28;20024;-41
2021/06/27 00:34:41;;;;;;;4.95;3.25;;;24.40;66.00;;;;;;5075014;28;20032;-41
2021/06/27 00:37:08;;;;;;;3.30;3.00;;;24.40;65.90;;;;;;5074432;28;20035;-41
2021/06/27 00:39:34;;;;;;;6.15;3.15;;;24.30;65.90;;;;;;5075146;28;20374;-41
2021/06/27 00:42:00;;;;;;;5.57;2.80;;;24.40;65.90;;;;;;5074874;28;20060;-40
2021/06/27 00:44:25;;;;;;;3.65;3.00;;;24.40;65.60;;;;;;5075142;28;20293;-40
2021/06/27 00:46:53;;;;;;;5.90;3.25;;;24.30;65.40;;;;;;5077787;28;20027;-41
2021/06/27 00:49:19;;;;;;;6.75;3.10;;;24.40;65.50;;;;;;5078603;28;20036;-41
2021/06/27 00:51:45;;;;;;;4.38;3.05;;;24.30;65.30;;;;;;5078061;28;20405;-41
2021/06/27 00:54:11;;;;;;;4.95;3.20;;;24.30;65.30;;;;;;5078527;28;20047;-41
2021/06/27 00:56:37;;;;;;;3.75;2.70;;;24.40;65.20;;;;;;5078127;28;20060;-41
2021/06/27 00:59:02;;;;;;;5.78;2.95;;;24.40;65.20;;;;;;5078024;28;20078;-41
2021/06/27 01:01:28;;;;;;;4.40;3.17;;;24.40;65.10;;;;;;5078423;28;20029;-41
2021/06/27 01:03:54;;;;;;;3.85;2.92;;;24.30;65.10;;;;;;5077806;28;20048;-41
2021/06/27 01:06:19;;;;;;;3.17;2.88;;;24.30;65.00;;;;;;5078175;28;20024;-41
2021/06/27 01:08:45;;;;;;;5.93;3.17;;;24.30;64.80;;;;;;5076524;28;20051;-41
2021/06/27 01:11:11;;;;;;;4.15;2.78;;;24.40;64.90;;;;;;5078020;28;20025;-41
2021/06/27 01:13:37;;;;;;;4.05;2.92;;;24.40;64.90;;;;;;5077812;28;20102;-41
2021/06/27 01:16:03;;;;;;;3.42;3.10;;;24.40;64.80;;;;;;5078406;28;20044;-41
2021/06/27 01:18:29;;;;;;;4.82;3.60;;;24.30;64.70;;;;;;5077459;28;20164;-41
2021/06/27 01:20:55;;;;;;;4.88;3.20;;;24.30;64.70;;;;;;5078275;28;20055;-40
2021/06/27 01:23:21;;;;;;;6.55;3.08;;;24.30;64.80;;;;;;5077729;28;20104;-41
2021/06/27 01:25:50;;;;;;;3.28;2.70;;;24.30;64.90;;;;;;5078213;28;20313;-41
2021/06/27 01:28:17;;;;;;;6.15;3.17;;;24.30;65.60;;;;;;5077321;28;20409;-41
2021/06/27 01:30:43;;;;;;;3.50;3.20;;;24.30;65.10;;;;;;5078084;28;20127;-41
2021/06/27 01:33:15;;;;;;;5.10;3.63;;;24.30;65.20;;;;;;5077308;28;20036;-41
2021/06/27 01:35:42;;;;;;;7.80;3.60;;;24.30;65.20;;;;;;5077893;28;20421;-42
2021/06/27 01:38:10;;;;;;;3.92;2.90;;;24.30;65.80;;;;;;5077145;28;20041;-42
2021/06/27 01:40:35;;;;;;;5.25;3.28;;;24.40;65.40;;;;;;5077736;28;20043;-42
2021/06/27 01:43:15;;;;;;;6.95;3.25;;;24.40;65.30;;;;;;5077436;28;20025;-41
2021/06/27 01:45:45;;;;;;;6.05;3.63;;;24.40;65.30;;;;;;5077770;28;20123;-41
2021/06/27 01:48:11;;;;;;;6.07;3.15;;;24.40;65.20;;;;;;5077051;28;20443;-38
2021/06/27 01:50:40;;;;;;;6.05;3.22;;;24.30;65.20;;;;;;5077216;28;20090;-39
2021/06/27 01:53:07;;;;;;;4.38;3.08;;;24.40;65.40;;;;;;5076914;28;20420;-38
2021/06/27 01:55:32;;;;;;;4.68;3.08;;;24.30;65.30;;;;;;5077313;28;20040;-38
2021/06/27 01:57:58;;;;;;;5.55;3.05;;;24.40;65.50;;;;;;5076803;28;20031;-39
2021/06/27 02:00:26;;;;;;;5.60;3.17;;;24.40;65.50;;;;;;5077476;28;20409;-39
2021/06/27 02:02:52;;;;;;;6.25;3.10;;;24.40;65.70;;;;;;5076996;28;20115;-40
2021/06/27 02:05:18;;;;;;;4.90;3.40;;;24.40;65.70;;;;;;5077380;28;20075;-38
2021/06/27 02:07:44;;;;;;;5.72;3.20;;;24.40;65.70;;;;;;5076543;28;20033;-39
2021/06/27 02:10:29;;;;;;;5.82;3.40;;;24.40;65.70;;;;;;5077216;28;20086;-39
2021/06/27 02:12:59;;;;;;;5.35;3.55;;;24.40;65.70;;;;;;5076311;28;20082;-39
2021/06/27 02:15:25;;;;;;;4.10;3.05;;;24.40;65.80;;;;;;5076977;28;20306;-38
2021/06/27 02:18:09;;;;;;;5.82;3.53;;;24.40;65.80;;;;;;5076060;28;20043;-39
2021/06/27 02:20:36;;;;;;;7.00;3.08;;;24.40;65.90;;;;;;5077074;28;20031;-38
2021/06/27 02:23:02;;;;;;;4.95;3.33;;;24.40;65.70;;;;;;5076364;28;20032;-39
2021/06/27 02:25:27;;;;;;;7.50;3.40;;;24.40;65.90;;;;;;5076814;28;20033;-38
2021/06/27 02:27:53;;;;;;;4.85;3.10;;;24.40;66.10;;;;;;5076216;28;20027;-39
2021/06/27 02:30:20;;;;;;;5.43;2.92;;;24.40;66.20;;;;;;5076956;28;20328;-41
2021/06/27 02:32:46;;;;;;;5.40;2.80;;;24.40;66.10;;;;;;5076009;28;20036;-41
2021/06/27 02:35:14;;;;;;;5.40;3.58;;;24.40;65.90;;;;;;5076605;28;20037;-41
2021/06/27 02:37:41;;;;;;;4.28;3.60;;;24.40;66.00;;;;;;5075914;28;20055;-41
2021/06/27 02:40:09;;;;;;;5.68;3.55;;;24.40;65.90;;;;;;5076520;28;20036;-42
2021/06/27 02:42:35;;;;;;;5.07;3.35;;;24.40;65.90;;;;;;5075896;28;20024;-41
2021/06/27 02:45:01;;;;;;;7.90;3.60;;;24.40;66.00;;;;;;5076603;28;20033;-41
2021/06/27 02:47:26;;;;;;;6.75;3.45;;;24.40;66.00;;;;;;5075829;28;20021;-41
2021/06/27 02:49:52;;;;;;;4.07;3.38;;;24.40;66.30;;;;;;5076371;28;20032;-41
2021/06/27 02:52:18;;;;;;;3.72;3.15;;;24.40;66.50;;;;;;5076059;28;20056;-41
2021/06/27 02:54:44;;;;;;;3.72;3.28;;;24.40;66.20;;;;;;5076135;28;20082;-41
2021/06/27 02:57:09;;;;;;;7.20;3.50;;;24.40;66.40;;;;;;5075794;28;20028;-42
2021/06/27 02:59:35;;;;;;;4.82;3.42;;;24.40;66.30;;;;;;5075993;28;20032;-41
2021/06/27 03:02:01;;;;;;;6.70;4.07;;;24.40;66.10;;;;;;5075923;28;20097;-41
2021/06/27 03:04:26;;;;;;;5.30;3.80;;;24.50;66.10;;;;;;5075926;28;20028;-41
2021/06/27 03:06:52;;;;;;;7.05;3.95;;;24.50;66.00;;;;;;5075760;28;20032;-41
2021/06/27 03:09:17;;;;;;;6.72;3.95;;;24.40;66.00;;;;;;5075788;28;20040;-42
2021/06/27 03:11:44;;;;;;;8.10;4.18;;;24.40;66.00;;;;;;5075532;28;20037;-42
2021/06/27 03:14:10;;;;;;;9.18;4.45;;;24.40;66.10;;;;;;5075846;28;20040;-41
2021/06/27 03:16:35;;;;;;;7.03;4.93;;;24.40;66.30;;;;;;5076010;28;20297;-43
2021/06/27 03:19:01;;;;;;;6.55;4.72;;;24.40;66.20;;;;;;5075413;28;20039;-41
2021/06/27 03:21:26;;;;;;;11.52;5.00;;;24.30;66.40;;;;;;5075614;28;20032;-42
2021/06/27 03:23:52;;;;;;;5.88;4.50;;;24.30;66.40;;;;;;5075274;28;20358;-41
2021/06/27 03:26:18;;;;;;;8.75;5.05;;;24.30;66.60;;;;;;5075614;28;20108;-42
2021/06/27 03:28:46;;;;;;;9.68;4.43;;;24.20;66.60;;;;;;5075119;28;20112;-41
2021/06/27 03:31:12;;;;;;;9.65;4.68;;;24.20;66.90;;;;;;5075916;28;20032;-41
2021/06/27 03:33:37;;;;;;;8.68;5.00;;;24.20;67.00;;;;;;5075158;28;20438;-41
2021/06/27 03:36:04;;;;;;;7.75;5.15;;;24.10;67.10;;;;;;5075820;28;20124;-41
2021/06/27 03:38:39;;;;;;;8.15;5.30;;;24.20;67.20;;;;;;5074972;28;20072;-41
2021/06/27 03:41:05;;;;;;;6.30;5.05;;;24.10;67.40;;;;;;5075967;28;20043;-44
2021/06/27 03:43:30;;;;;;;6.75;4.60;;;24.10;67.50;;;;;;5074909;28;20024;-41
2021/06/27 03:45:56;;;;;;;8.38;5.10;;;24.10;67.60;;;;;;5075936;28;20067;-41
2021/06/27 03:48:22;;;;;;;5.25;4.60;;;24.10;67.60;;;;;;5075365;28;20425;-42
2021/06/27 03:50:47;;;;;;;9.13;5.00;;;24.10;67.50;;;;;;5075719;28;20037;-41
2021/06/27 03:53:13;;;;;;;7.57;4.38;;;24.20;67.30;;;;;;5075226;28;20029;-41
2021/06/27 03:55:38;;;;;;;10.18;5.25;;;24.20;67.30;;;;;;5075689;28;20033;-41
2021/06/27 03:58:04;;;;;;;7.03;5.10;;;24.20;67.20;;;;;;5074970;28;20051;-42
2021/06/27 04:00:30;;;;;;;7.07;4.45;;;24.30;67.30;;;;;;5075788;28;20336;-41
2021/06/27 04:02:55;;;;;;;7.93;5.32;;;24.30;67.20;;;;;;5074928;28;20024;-41
2021/06/27 04:05:21;;;;;;;5.65;4.60;;;24.30;67.40;;;;;;5075434;28;20033;-41
2021/06/27 04:07:47;;;;;;;8.23;5.10;;;24.30;67.30;;;;;;5073801;28;20029;-41
2021/06/27 04:10:13;;;;;;;11.57;5.32;;;24.40;67.30;;;;;;5075600;28;20028;-41
2021/06/27 04:12:38;;;;;;;8.70;4.50;;;24.40;67.20;;;;;;5075032;28;20033;-41
2021/06/27 04:15:06;;;;;;;7.18;5.15;;;24.40;67.30;;;;;;5075221;28;20067;-41
2021/06/27 04:17:32;;;;;;;8.60;4.70;;;24.40;67.60;;;;;;5074848;28;20082;-41
2021/06/27 04:19:58;;;;;;;8.27;5.30;;;24.50;67.60;;;;;;5075862;28;20037;-41
2021/06/27 04:22:24;;;;;;;8.68;5.50;;;24.50;67.80;;;;;;5078424;28;20025;-41
2021/06/27 04:24:49;;;;;;;7.85;5.53;;;24.60;67.80;;;;;;5079056;28;20123;-41
2021/06/27 04:27:15;;;;;;;8.32;5.93;;;24.60;67.80;;;;;;5078485;28;20099;-43
2021/06/27 04:29:41;;;;;;;9.05;6.00;;;24.70;67.90;;;;;;5079023;28;20082;-41
2021/06/27 04:32:07;;;;;;;12.38;7.70;;;24.70;68.10;;;;;;5078356;28;20032;-41
2021/06/27 04:34:33;;;;;;;10.20;6.43;;;24.80;68.30;;;;;;5078649;28;20098;-41
2021/06/27 04:36:58;;;;;;;8.57;6.75;;;24.80;68.50;;;;;;5078523;28;20020;-41
2021/06/27 04:39:24;;;;;;;13.40;6.88;;;24.80;68.60;;;;;;5078300;28;20044;-42
2021/06/27 04:41:50;;;;;;;10.63;6.35;;;24.90;68.90;;;;;;5078276;28;20017;-41
2021/06/27 04:44:15;;;;;;;10.70;7.30;;;24.90;69.10;;;;;;5078617;28;20037;-41
2021/06/27 04:46:41;;;;;;;6.97;5.22;;;24.90;69.20;;;;;;5076869;28;20029;-42
2021/06/27 04:49:08;;;;;;;5.93;4.18;;;25.00;68.50;;;;;;5078295;28;20041;-41
2021/06/27 04:51:35;;;;;;;7.07;4.25;;;25.00;68.10;;;;;;5078439;28;20032;-41
2021/06/27 04:54:01;;;;;;;6.55;4.50;;;25.00;67.30;;;;;;5077949;28;20405;-41
2021/06/27 04:56:27;;;;;;;5.03;4.53;;;25.00;66.60;;;;;;5078444;28;20039;-41
2021/06/27 04:58:52;;;;;;;5.47;4.43;;;25.00;66.70;;;;;;5077731;28;20351;-41
2021/06/27 05:01:18;;;;;;;5.35;4.50;;;25.00;66.60;;;;;;5078034;28;20020;-41
2021/06/27 05:03:44;;;;;;;5.43;4.03;;;25.00;66.60;;;;;;5077742;28;20028;-41
2021/06/27 05:06:09;;;;;;;6.13;4.70;;;25.00;66.60;;;;;;5078372;28;20020;-39
2021/06/27 05:08:35;;;;;;;10.75;4.35;;;25.10;66.80;;;;;;5077867;28;20115;-41
2021/06/27 05:11:01;;;;;;;5.95;4.28;;;25.10;66.40;;;;;;5078558;28;20036;-39
2021/06/27 05:13:26;;;;;;;6.40;4.60;;;25.20;66.40;;;;;;5077828;28;20075;-39
2021/06/27 05:15:52;;;;;;;5.88;4.50;;;25.20;66.20;;;;;;5078217;28;20037;-39
2021/06/27 05:18:19;;;;;;;5.55;4.22;;;25.20;65.80;;;;;;5077493;28;20028;-39
2021/06/27 05:20:46;;;;;;;8.40;4.43;;;25.20;65.40;;;;;;5078286;28;20109;-42
2021/06/27 05:23:12;;;;;;;6.47;4.18;;;25.30;65.50;;;;;;5077713;28;20028;-39
2021/06/27 05:25:37;;;;;;;7.88;4.50;;;25.20;65.50;;;;;;5078046;28;20037;-39
2021/06/27 05:28:03;;;;;;;7.60;4.60;;;25.30;65.60;;;;;;5077487;28;20111;-40
2021/06/27 05:30:29;;;;;;;6.78;4.72;;;25.30;65.60;;;;;;5077951;28;20036;-40
2021/06/27 05:32:55;;;;;;;5.40;4.32;;;25.30;65.70;;;;;;5077559;28;20082;-39
2021/06/27 05:35:20;;;;;;;7.13;5.00;;;25.30;65.80;;;;;;5077116;28;20025;-39
2021/06/27 05:37:46;;;;;;;8.05;5.18;;;25.40;65.60;;;;;;5077030;28;20053;-39
2021/06/27 05:40:12;;;;;;;13.00;7.97;;;25.40;65.60;;;;;;5077817;28;20033;-39
2021/06/27 05:42:38;;;;;;;7.47;5.43;;;25.40;65.80;;;;;;5077237;28;20059;-39
2021/06/27 05:45:05;;;;;;;7.22;4.80;;;25.40;65.80;;;;;;5077576;28;20413;-39
2021/06/27 05:47:31;;;;;;;6.53;4.90;;;25.50;66.10;;;;;;5076817;28;20476;-39
2021/06/27 05:49:56;;;;;;;6.10;4.72;;;25.50;66.30;;;;;;5077207;28;20119;-39
2021/06/27 05:52:22;;;;;;;6.60;4.90;;;25.60;66.40;;;;;;5077227;28;20028;-39
2021/06/27 05:54:48;;;;;;;6.05;4.80;;;25.60;66.20;;;;;;5077288;28;20475;-39
2021/06/27 05:57:13;;;;;;;12.18;6.05;;;25.70;66.00;;;;;;5076636;28;20025;-39
2021/06/27 05:59:39;;;;;;;6.78;5.15;;;25.70;66.00;;;;;;5077341;28;20028;-39
2021/06/27 06:02:04;;;;;;;14.55;8.77;;;25.80;66.10;;;;;;5076514;28;20115;-38
2021/06/27 06:04:30;;;;;;;7.43;5.15;;;25.80;66.00;;;;;;5077091;28;20078;-39
2021/06/27 06:06:56;;;;;;;6.82;5.18;;;25.90;65.80;;;;;;5076629;28;20029;-39
2021/06/27 06:09:21;;;;;;;6.90;5.63;;;25.90;65.80;;;;;;5076979;28;20020;-38
2021/06/27 06:11:47;;;;;;;13.40;9.27;;;25.90;65.80;;;;;;5076782;28;20028;-38
2021/06/27 06:14:14;;;;;;;10.43;6.32;;;25.90;65.80;;;;;;5076466;28;20336;-39
2021/06/27 06:16:41;;;;;;;9.18;7.07;;;25.90;65.70;;;;;;5076644;28;20420;-39
2021/06/27 06:19:07;;;;;;;7.40;5.93;;;25.90;65.80;;;;;;5076252;28;20031;-39
2021/06/27 06:21:33;;;;;;;8.77;5.97;;;25.80;65.80;;;;;;5076510;28;20112;-39
2021/06/27 06:23:59;;;;;;;7.60;5.55;;;25.90;66.00;;;;;;5075838;28;20111;-38
2021/06/27 06:26:24;;;;;;;8.80;6.25;;;25.80;66.00;;;;;;5076185;28;20040;-39
2021/06/27 06:28:50;;;;;;;7.20;5.32;;;25.80;66.20;;;;;;5075572;28;20029;-39
2021/06/27 06:31:16;;;;;;;8.50;6.22;;;25.80;66.40;;;;;;5076203;28;20321;-41
2021/06/27 06:33:42;;;;;;;7.20;5.78;;;25.70;66.20;;;;;;5075844;28;20026;-39
2021/06/27 06:36:07;;;;;;;8.60;5.90;;;25.70;66.60;;;;;;5076430;28;20159;-39
2021/06/27 06:38:33;;;;;;;7.97;5.40;;;25.70;66.70;;;;;;5075602;28;20135;-38
2021/06/27 06:40:59;;;;;;;12.30;5.10;;;25.60;67.00;;;;;;5076641;28;20044;-38
2021/06/27 06:43:25;;;;;;;10.32;6.50;;;25.60;67.20;;;;;;5074927;28;20034;-39
2021/06/27 06:45:50;;;;;;;13.23;9.15;;;25.50;67.30;;;;;;5076425;28;20110;-39
2021/06/27 06:48:16;;;;;;;14.60;10.25;;;25.60;67.50;;;;;;5075285;28;20033;-39
2021/06/27 06:50:42;;;;;;;7.53;6.00;;;25.60;67.60;;;;;;5076294;28;20048;-39
2021/06/27 06:53:08;;;;;;;7.63;5.93;;;25.60;67.70;;;;;;5075529;28;20020;-39
2021/06/27 06:55:33;;;;;;;9.18;6.03;;;25.60;67.90;;;;;;5076032;28;20048;-39
2021/06/27 06:57:59;;;;;;;15.52;11.70;;;25.60;68.00;;;;;;5075719;28;20024;-39
2021/06/27 07:00:25;;;;;;;19.52;13.15;;;25.60;68.30;;;;;;5076038;28;20107;-39
2021/06/27 07:02:50;;;;;;;13.85;10.25;;;25.60;68.20;;;;;;5075605;28;20100;-39
2021/06/27 07:05:16;;;;;;;11.55;8.38;;;25.70;68.20;;;;;;5076005;28;20428;-39
2021/06/27 07:07:45;;;;;;;10.68;8.48;;;25.80;68.30;;;;;;5075512;28;20016;-39
2021/06/27 07:10:11;;;;;;;10.45;7.28;;;25.80;68.00;;;;;;5076063;28;20025;-38
2021/06/27 07:12:38;;;;;;;11.30;8.60;;;25.90;68.70;;;;;;5075410;28;20321;-39
2021/06/27 07:15:04;;;;;;;9.93;7.18;;;25.90;68.20;;;;;;5075690;28;20107;-39
2021/06/27 07:17:30;;;;;;;13.07;7.57;;;26.00;68.00;;;;;;5074989;28;20036;-39
2021/06/27 07:19:56;;;;;;;12.02;6.63;;;26.00;68.10;;;;;;5075570;28;20202;-39
2021/06/27 07:22:22;;;;;;;10.10;6.30;;;26.00;68.00;;;;;;5075361;28;20389;-39
2021/06/27 07:24:48;;;;;;;10.90;6.60;;;26.00;67.70;;;;;;5075809;28;20036;-39
2021/06/27 07:27:13;;;;;;;7.70;6.47;;;26.00;67.80;;;;;;5075058;28;20025;-39
2021/06/27 07:29:39;;;;;;;8.82;6.72;;;26.00;67.80;;;;;;5075311;28;20127;-39
2021/06/27 07:32:06;;;;;;;9.90;6.75;;;25.90;68.00;;;;;;5075176;28;20105;-39
2021/06/27 07:34:32;;;;;;;7.95;5.80;;;25.90;67.40;;;;;;5074872;28;20051;-39
2021/06/27 07:36:58;;;;;;;8.77;6.47;;;25.90;67.30;;;;;;5075452;28;20020;-39
2021/06/27 07:39:23;;;;;;;12.05;6.50;;;25.90;67.20;;;;;;5075163;28;20331;-38
2021/06/27 07:41:49;;;;;;;14.48;7.20;;;25.90;67.20;;;;;;5075011;28;20400;-38
2021/06/27 07:44:15;;;;;;;11.82;6.63;;;25.90;67.40;;;;;;5075412;28;20033;-39
2021/06/27 07:46:40;;;;;;;7.63;6.82;;;25.80;67.40;;;;;;5075118;28;20363;-41
2021/06/27 07:49:06;;;;;;;9.02;6.32;;;25.80;67.60;;;;;;5075705;28;20037;-39
2021/06/27 07:51:32;;;;;;;9.18;6.55;;;25.80;67.80;;;;;;5075411;28;20029;-39
2021/06/27 07:53:58;;;;;;;11.98;7.25;;;25.80;67.80;;;;;;5075145;28;20020;-38
2021/06/27 07:56:24;;;;;;;9.68;6.75;;;25.80;68.10;;;;;;5079196;28;20029;-39
2021/06/27 07:58:50;;;;;;;8.65;6.40;;;25.70;68.00;;;;;;5079246;28;20025;-38
2021/06/27 08:01:16;;;;;;;9.57;6.43;;;25.70;68.30;;;;;;5079653;28;20043;-39
2021/06/27 08:03:41;;;;;;;9.25;7.13;;;25.70;68.30;;;;;;5078732;28;20328;-39
2021/06/27 08:06:07;;;;;;;11.68;7.03;;;25.70;68.50;;;;;;5079703;28;20029;-39
2021/06/27 08:08:33;;;;;;;10.73;6.65;;;25.60;68.30;;;;;;5078829;28;20320;-38
2021/06/27 08:10:58;;;;;;;16.40;7.10;;;25.70;68.30;;;;;;5079607;28;20037;-38
2021/06/27 08:13:24;;;;;;;9.90;6.63;;;25.60;68.40;;;;;;5078689;28;20043;-39
2021/06/27 08:15:50;;;;;;;9.13;6.78;;;25.70;68.90;;;;;;5079070;28;20060;-38
2021/06/27 08:18:16;;;;;;;8.52;6.18;;;25.70;68.90;;;;;;5078850;28;20036;-39
2021/06/27 08:20:42;;;;;;;8.43;6.05;;;25.70;68.90;;;;;;5079208;28;20404;-38
2021/06/27 08:23:09;;;;;;;9.32;6.30;;;25.80;69.10;;;;;;5078352;28;20378;-39
2021/06/27 08:25:35;;;;;;;8.20;6.88;;;25.90;69.10;;;;;;5079102;28;20050;-39
2021/06/27 08:28:01;;;;;;;8.18;6.13;;;25.90;68.90;;;;;;5078857;28;20109;-39
2021/06/27 08:30:27;;;;;;;9.27;6.05;;;26.00;69.10;;;;;;5079081;28;20036;-40
2021/06/27 08:32:53;;;;;;;10.35;6.95;;;26.10;69.20;;;;;;5078151;28;20025;-40
2021/06/27 08:35:21;;;;;;;9.07;6.57;;;26.20;68.90;;;;;;5078697;28;20116;-39
2021/06/27 08:37:48;;;;;;;12.88;6.72;;;26.30;69.00;;;;;;5076810;28;20456;-39
2021/06/27 08:40:15;;;;;;;6.85;6.15;;;26.40;68.80;;;;;;5078924;28;20071;-39
2021/06/27 08:42:42;;;;;;;8.75;6.00;;;26.50;68.50;;;;;;5076497;28;20511;-39
2021/06/27 08:45:09;;;;;;;10.27;6.40;;;26.60;68.50;;;;;;5078512;28;20024;-39
2021/06/27 08:47:37;;;;;;;10.40;6.60;;;26.70;68.10;;;;;;5078146;28;20358;-39
2021/06/27 08:50:05;;;;;;;9.05;6.15;;;26.80;68.40;;;;;;5078547;28;20074;-39
2021/06/27 08:52:33;;;;;;;8.68;6.10;;;26.90;67.80;;;;;;5078199;28;20089;-39
2021/06/27 08:54:59;;;;;;;12.50;6.88;;;27.00;67.80;;;;;;5077904;28;20388;-39
2021/06/27 08:57:25;;;;;;;9.52;6.10;;;27.10;67.50;;;;;;5077743;28;20424;-39
2021/06/27 08:59:52;;;;;;;8.93;6.55;;;27.20;67.30;;;;;;5078083;28;20036;-38
2021/06/27 09:02:18;;;;;;;7.68;5.63;;;27.20;66.80;;;;;;5077948;28;20036;-39
2021/06/27 09:04:44;;;;;;;11.73;5.90;;;27.30;66.60;;;;;;5078003;28;20027;-39
2021/06/27 09:07:28;;;;;;;7.93;6.63;;;27.30;66.30;;;;;;5077021;28;20051;-39
2021/06/27 09:09:55;;;;;;;10.38;6.38;;;27.40;65.90;;;;;;5077741;28;20032;-39
2021/06/27 09:12:22;;;;;;;9.27;6.70;;;27.30;65.80;;;;;;5077337;28;20502;-39
2021/06/27 09:14:48;;;;;;;13.02;7.90;;;27.40;66.00;;;;;;5077887;28;20078;-39
2021/06/27 09:17:23;;;;;;;9.10;6.18;;;27.40;65.80;;;;;;5076261;28;20097;-40
2021/06/27 09:19:54;;;;;;;15.45;7.72;;;27.50;65.70;;;;;;5077945;28;20032;-39
2021/06/27 09:22:41;;;;;;;9.88;6.72;;;27.50;65.20;;;;;;5077447;28;20032;-39
2021/06/27 09:25:25;;;;;;;10.77;6.63;;;27.60;65.40;;;;;;5077589;28;20124;-39
2021/06/27 09:28:17;;;;;;;7.78;6.82;;;27.60;65.00;;;;;;5077418;28;20321;-39
2021/06/27 09:30:48;;;;;;;8.50;6.00;;;27.70;64.70;;;;;;5078047;28;20040;-39
2021/06/27 09:33:19;;;;;;;8.30;6.45;;;27.70;65.10;;;;;;5077156;28;20050;-39
2021/06/27 09:35:49;;;;;;;6.32;5.65;;;27.80;64.90;;;;;;5077694;28;20029;-39
2021/06/27 09:38:21;;;;;;;9.20;6.03;;;27.80;64.70;;;;;;5076995;28;20048;-40
2021/06/27 09:40:50;;;;;;;9.18;6.55;;;27.90;64.70;;;;;;5077864;28;20037;-39
2021/06/27 09:43:16;;;;;;;10.18;7.43;;;28.00;64.50;;;;;;5076713;28;20122;-39
2021/06/27 09:45:48;;;;;;;9.70;6.68;;;28.00;64.50;;;;;;5077530;28;20043;-39
2021/06/27 09:48:14;;;;;;;9.90;6.65;;;28.00;64.20;;;;;;5076578;28;20111;-39
2021/06/27 09:50:40;;;;;;;11.68;6.53;;;28.00;64.20;;;;;;5077480;28;20411;-38
2021/06/27 09:53:06;;;;;;;7.68;5.80;;;28.00;64.20;;;;;;5076822;28;20024;-39
2021/06/27 09:55:31;;;;;;;7.40;5.85;;;28.00;63.80;;;;;;5077296;28;20041;-39
2021/06/27 09:58:16;;;;;;;7.40;6.70;;;28.00;64.10;;;;;;5076913;28;20028;-39
2021/06/27 10:00:41;;;;;;;10.77;6.60;;;28.00;63.50;;;;;;5076879;28;20039;-39
2021/06/27 10:03:09;;;;;;;7.65;6.18;;;28.00;64.20;;;;;;5075466;28;20020;-39
2021/06/27 10:05:35;;;;;;;7.35;5.72;;;28.10;64.10;;;;;;5076884;28;20112;-39
2021/06/27 10:08:01;;;;;;;8.50;6.07;;;28.10;64.20;;;;;;5076234;28;20119;-39
2021/06/27 10:10:27;;;;;;;8.07;6.15;;;28.20;63.90;;;;;;5076933;28;20036;-39
2021/06/27 10:12:53;;;;;;;7.68;6.38;;;28.20;63.80;;;;;;5076252;28;20095;-39
2021/06/27 10:15:18;;;;;;;7.68;6.35;;;28.30;63.40;;;;;;5076877;28;20041;-39
2021/06/27 10:17:46;;;;;;;10.57;5.88;;;28.40;63.60;;;;;;5075456;28;20099;-39
2021/06/27 10:20:14;;;;;;;7.00;6.30;;;28.40;63.40;;;;;;5076845;28;20024;-39
2021/06/27 10:22:41;;;;;;;7.72;6.15;;;28.50;63.60;;;;;;5076193;28;20159;-39
2021/06/27 10:25:13;;;;;;;10.93;6.70;;;28.60;63.70;;;;;;5076798;28;20041;-39
2021/06/27 10:27:39;;;;;;;6.93;6.13;;;28.70;63.10;;;;;;5076070;28;20056;-39
2021/06/27 10:30:07;;;;;;;11.40;7.10;;;28.80;63.00;;;;;;5076624;28;20405;-39
2021/06/27 10:32:38;;;;;;;8.68;6.13;;;28.90;62.30;;;;;;5075875;28;20088;-39
2021/06/27 10:35:08;;;;;;;7.40;5.95;;;28.90;61.90;;;;;;5076627;28;20316;-40
2021/06/27 10:37:42;;;;;;;8.05;6.40;;;28.90;61.80;;;;;;5075775;28;20048;-39
2021/06/27 10:40:11;;;;;;;8.90;6.10;;;28.90;61.70;;;;;;5076706;28;20036;-39
2021/06/27 10:42:49;;;;;;;8.43;6.10;;;29.00;61.90;;;;;;5075941;28;20104;-39
2021/06/27 10:45:18;;;;;;;8.00;6.20;;;29.10;61.80;;;;;;5076585;28;20367;-39
2021/06/27 10:47:44;;;;;;;9.70;6.90;;;29.10;61.40;;;;;;5075742;28;20024;-39
2021/06/27 10:50:11;;;;;;;17.48;7.13;;;29.20;61.50;;;;;;5076395;28;20041;-39
2021/06/27 10:52:55;;;;;;;8.73;5.72;;;29.20;61.20;;;;;;5075639;28;20024;-39
2021/06/27 10:55:21;;;;;;;7.57;5.45;;;29.30;61.30;;;;;;5076162;28;20047;-39
2021/06/27 10:58:04;;;;;;;7.60;6.38;;;29.40;61.30;;;;;;5075323;28;20409;-39
2021/06/27 11:00:56;;;;;;;9.27;5.97;;;29.50;60.70;;;;;;5076035;28;20033;-39
2021/06/27 11:03:30;;;;;;;8.60;6.82;;;29.60;60.40;;;;;;5075495;28;20048;-39
2021/06/27 11:06:01;;;;;;;8.52;6.18;;;29.60;59.90;;;;;;5076154;28;20086;-39
2021/06/27 11:08:33;;;;;;;7.35;5.85;;;29.70;59.60;;;;;;5075277;28;20116;-39
2021/06/27 11:11:05;;;;;;;12.30;5.88;;;29.70;59.80;;;;;;5076089;28;20086;-39
2021/06/27 11:13:32;;;;;;;7.55;5.50;;;29.80;59.80;;;;;;5075393;28;20348;-39
2021/06/27 11:16:02;;;;;;;7.32;5.82;;;29.90;59.80;;;;;;5075630;28;20089;-39
2021/06/27 11:18:40;;;;;;;7.72;5.20;;;30.00;58.90;;;;;;5075312;28;20290;-39
2021/06/27 11:21:28;;;;;;;8.65;5.60;;;30.00;59.20;;;;;;5076192;28;20036;-39
2021/06/27 11:23:57;;;;;;;6.90;5.25;;;30.10;59.20;;;;;;5075053;28;20091;-39
2021/06/27 11:26:41;;;;;;;9.57;5.57;;;30.20;59.30;;;;;;5075823;28;20027;-39
2021/06/27 11:29:22;;;;;;;7.25;5.22;;;30.30;59.10;;;;;;5074980;28;20043;-39
2021/06/27 11:31:52;;;;;;;8.82;5.85;;;30.40;58.80;;;;;;5075074;28;20039;-39
2021/06/27 11:34:25;;;;;;;9.52;5.38;;;30.40;58.70;;;;;;5075725;28;20029;-39
2021/06/27 11:36:52;;;;;;;8.13;5.65;;;30.50;58.20;;;;;;5075333;28;20078;-39
2021/06/27 11:39:52;;;;;;;6.65;5.93;;;30.50;57.70;;;;;;5075177;28;20052;-39
2021/06/27 11:42:27;;;;;;;8.38;5.93;;;30.60;57.70;;;;;;5074725;28;20112;-42
2021/06/27 11:45:08;;;;;;;6.57;5.78;;;30.60;57.50;;;;;;5074132;28;20063;-39
2021/06/27 11:47:33;;;;;;;7.10;5.43;;;30.50;57.30;;;;;;5074808;28;20132;-39
2021/06/27 11:50:16;;;;;;;7.70;5.85;;;30.40;57.40;;;;;;5075636;28;20108;-39
2021/06/27 11:52:42;;;;;;;8.75;6.10;;;30.40;57.80;;;;;;5075030;28;20102;-39
2021/06/27 11:55:09;;;;;;;7.10;6.07;;;30.20;58.20;;;;;;5074920;28;20089;-39
2021/06/27 11:57:42;;;;;;;7.88;6.00;;;30.10;57.70;;;;;;5074526;28;20428;-39
2021/06/27 12:00:10;;;;;;;6.82;5.80;;;30.00;58.40;;;;;;5075188;28;20033;-39
2021/06/27 12:02:37;;;;;;;8.02;5.30;;;29.90;58.40;;;;;;5073427;28;20542;-39
2021/06/27 12:05:07;;;;;;;6.55;5.75;;;29.80;58.80;;;;;;5074820;28;20089;-39
2021/06/27 12:07:42;;;;;;;11.38;6.35;;;29.80;58.90;;;;;;5074450;28;20029;-39
2021/06/27 12:10:11;;;;;;;7.93;7.10;;;29.80;58.30;;;;;;5075416;28;20028;-39
2021/06/27 12:12:42;;;;;;;8.47;6.73;;;29.70;59.10;;;;;;5074664;28;20034;-39
2021/06/27 12:15:18;;;;;;;12.35;6.10;;;29.60;59.10;;;;;;5075253;28;20545;-39
2021/06/27 12:17:53;;;;;;;7.75;5.53;;;29.60;59.00;;;;;;5074167;28;20111;-39
2021/06/27 12:20:19;;;;;;;11.27;6.88;;;29.60;59.50;;;;;;5074972;28;20025;-39
2021/06/27 12:22:52;;;;;;;7.10;5.57;;;29.50;58.90;;;;;;5074531;28;20039;-39
2021/06/27 12:25:31;;;;;;;10.25;5.50;;;29.50;59.30;;;;;;5075143;28;20093;-39
2021/06/27 12:28:00;;;;;;;6.93;5.20;;;29.50;59.50;;;;;;5074561;28;20085;-40
2021/06/27 12:30:43;;;;;;;10.40;6.00;;;29.40;59.50;;;;;;5075271;28;20776;-39
2021/06/27 12:33:12;;;;;;;9.43;6.28;;;29.50;59.60;;;;;;5074557;28;20116;-39
2021/06/27 12:35:40;;;;;;;11.43;5.97;;;29.50;59.20;;;;;;5075063;28;20029;-39
2021/06/27 12:38:06;;;;;;;11.13;5.82;;;29.40;59.50;;;;;;5074190;28;20181;-39
2021/06/27 12:40:33;;;;;;;10.75;6.22;;;29.50;59.90;;;;;;5074757;28;20068;-39
2021/06/27 12:42:59;;;;;;;11.93;6.32;;;29.50;59.00;;;;;;5078089;28;20052;-39
2021/06/27 12:45:25;;;;;;;6.32;5.18;;;29.50;58.80;;;;;;5078715;28;20033;-39
2021/06/27 12:47:53;;;;;;;8.13;4.85;;;29.50;59.60;;;;;;5078281;28;20025;-39